createdAt,value
2018-10-19T00:01:53.094Z,11.20
2018-10-19T00:04:21.635Z,11.20
2018-10-19T00:06:50.207Z,11.30
2018-10-19T00:09:18.826Z,11.20
2018-10-19T00:11:47.285Z,11.20
2018-10-19T00:14:15.703Z,11.10
2018-10-19T00:16:44.263Z,11.10
2018-10-19T00:19:13.693Z,11.00
2018-10-19T00:21:49.638Z,11.00
2018-10-19T00:24:18.140Z,11.00
2018-10-19T00:26:47.023Z,11.00
2018-10-19T00:29:15.664Z,11.10
2018-10-19T00:31:44.167Z,11.00
2018-10-19T00:34:12.758Z,11.00
2018-10-19T00:36:41.564Z,10.90
2018-10-19T00:39:11.815Z,10.80
2018-10-19T00:41:40.354Z,10.80
2018-10-19T00:44:08.710Z,10.70
2018-10-19T00:46:37.091Z,10.60
2018-10-19T00:49:06.210Z,10.70
2018-10-19T00:51:34.591Z,10.60
2018-10-19T00:54:02.833Z,10.60
2018-10-19T00:56:31.097Z,10.60
2018-10-19T00:58:59.634Z,10.60
2018-10-19T01:01:27.837Z,10.60
2018-10-19T01:03:56.117Z,10.60
2018-10-19T01:06:24.375Z,10.60
2018-10-19T01:08:52.935Z,10.60
2018-10-19T01:11:21.158Z,10.50
2018-10-19T01:13:49.426Z,10.50
2018-10-19T01:16:17.767Z,10.50
2018-10-19T01:18:46.079Z,10.50
2018-10-19T01:21:14.358Z,10.50
2018-10-19T01:23:42.621Z,10.50
2018-10-19T01:26:11.223Z,10.50
2018-10-19T01:28:39.522Z,10.50
2018-10-19T01:31:07.782Z,10.50
2018-10-19T01:33:36.234Z,10.40
2018-10-19T01:36:05.680Z,10.50
2018-10-19T01:38:34.018Z,10.40
2018-10-19T01:41:04.388Z,10.50
2018-10-19T01:43:33.879Z,10.40
2018-10-19T01:46:02.245Z,10.40
2018-10-19T01:48:30.644Z,10.40
2018-10-19T01:50:59.155Z,10.30
2018-10-19T01:53:27.727Z,10.40
2018-10-19T01:55:56.446Z,10.30
2018-10-19T01:58:24.934Z,10.20
2018-10-19T02:00:53.317Z,10.20
2018-10-19T02:03:21.846Z,10.20
2018-10-19T02:05:50.426Z,10.20
2018-10-19T02:08:19.299Z,10.10
2018-10-19T02:10:47.916Z,10.10
2018-10-19T02:13:16.562Z,10.10
2018-10-19T02:15:45.176Z,10.10
2018-10-19T02:18:14.024Z,10.20
2018-10-19T02:20:43.577Z,10.10
2018-10-19T02:23:12.239Z,10.10
2018-10-19T02:25:40.919Z,10.00
2018-10-19T02:28:09.584Z,10.00
2018-10-19T02:30:44.518Z,10.00
2018-10-19T02:33:13.090Z,9.90
2018-10-19T02:35:41.969Z,9.90
2018-10-19T02:38:10.493Z,9.80
2018-10-19T02:40:39.673Z,9.80
2018-10-19T02:43:08.287Z,9.90
2018-10-19T02:45:40.849Z,9.90
2018-10-19T02:48:09.501Z,9.90
2018-10-19T02:50:37.998Z,9.80
2018-10-19T02:53:06.306Z,9.80
2018-10-19T02:55:34.739Z,9.80
2018-10-19T02:58:04.067Z,9.80
2018-10-19T03:00:32.467Z,9.70
2018-10-19T03:03:01.362Z,9.70
2018-10-19T03:05:29.844Z,9.70
2018-10-19T03:07:58.651Z,9.80
2018-10-19T03:10:27.264Z,9.90
2018-10-19T03:12:55.901Z,9.90
2018-10-19T03:15:24.532Z,9.90
2018-10-19T03:17:53.098Z,9.90
2018-10-19T03:20:21.792Z,9.80
2018-10-19T03:22:50.320Z,9.80
2018-10-19T03:25:18.941Z,9.80
2018-10-19T03:27:47.580Z,9.80
2018-10-19T03:30:15.973Z,9.80
2018-10-19T03:32:44.819Z,9.90
2018-10-19T03:35:13.323Z,9.80
2018-10-19T03:37:41.884Z,9.80
2018-10-19T03:40:10.267Z,9.80
2018-10-19T03:42:38.652Z,9.80
2018-10-19T03:45:07.374Z,9.80
2018-10-19T03:47:35.709Z,9.80
2018-10-19T03:50:04.037Z,9.80
2018-10-19T03:52:32.284Z,9.80
2018-10-19T03:57:51.133Z,9.80
2018-10-19T04:00:19.495Z,9.80
2018-10-19T04:02:47.750Z,9.70
2018-10-19T04:05:16.122Z,9.70
2018-10-19T04:07:44.909Z,9.70
2018-10-19T04:10:13.599Z,9.60
2018-10-19T04:12:42.743Z,9.70
2018-10-19T04:15:11.552Z,9.60
2018-10-19T04:17:40.126Z,9.70
2018-10-19T04:20:08.809Z,9.70
2018-10-19T04:22:37.359Z,9.70
2018-10-19T04:25:05.945Z,9.70
2018-10-19T04:27:34.711Z,9.60
2018-10-19T04:30:03.099Z,9.60
2018-10-19T04:32:31.944Z,9.50
2018-10-19T04:35:00.462Z,9.60
2018-10-19T04:37:28.915Z,9.60
2018-10-19T04:39:57.469Z,9.60
2018-10-19T04:42:26.071Z,9.60
2018-10-19T04:44:54.591Z,9.60
2018-10-19T04:47:23.213Z,9.60
2018-10-19T04:49:51.687Z,9.60
2018-10-19T04:52:20.214Z,9.60
2018-10-19T04:54:48.777Z,9.60
2018-10-19T04:57:17.527Z,9.60
2018-10-19T04:59:45.898Z,9.60
2018-10-19T05:02:14.478Z,9.50
2018-10-19T05:04:42.967Z,9.40
2018-10-19T05:07:11.191Z,9.50
2018-10-19T05:09:39.889Z,9.50
2018-10-19T05:12:08.313Z,9.50
2018-10-19T05:14:36.680Z,9.40
2018-10-19T05:17:05.380Z,9.50
2018-10-19T05:19:33.671Z,9.40
2018-10-19T05:22:02.047Z,9.50
2018-10-19T05:24:30.716Z,9.50
2018-10-19T05:26:59.209Z,9.50
2018-10-19T05:29:27.490Z,9.50
2018-10-19T05:31:55.864Z,9.40
2018-10-19T05:34:24.360Z,9.30
2018-10-19T05:36:52.654Z,9.30
2018-10-19T05:39:21.211Z,9.30
2018-10-19T05:41:49.822Z,9.30
2018-10-19T05:44:18.386Z,9.40
2018-10-19T05:46:46.919Z,9.40
2018-10-19T05:49:15.421Z,9.40
2018-10-19T05:51:44.601Z,9.30
2018-10-19T05:54:13.177Z,9.40
2018-10-19T05:56:41.831Z,9.50
2018-10-19T05:59:10.413Z,9.40
2018-10-19T06:01:38.910Z,9.40
2018-10-19T06:04:07.812Z,9.50
2018-10-19T06:06:36.507Z,9.50
2018-10-19T06:09:06.980Z,9.60
2018-10-19T06:11:35.475Z,9.70
2018-10-19T06:14:04.073Z,9.60
2018-10-19T06:16:32.503Z,9.60
2018-10-19T06:19:00.823Z,9.70
2018-10-19T06:21:29.253Z,9.70
2018-10-19T06:23:57.838Z,9.80
2018-10-19T06:26:26.325Z,9.80
2018-10-19T06:28:54.651Z,9.90
2018-10-19T06:31:23.045Z,9.90
2018-10-19T06:33:51.516Z,9.90
2018-10-19T06:36:19.834Z,9.90
2018-10-19T06:38:48.472Z,10.00
2018-10-19T06:41:16.930Z,10.00
2018-10-19T06:43:45.255Z,10.00
2018-10-19T06:46:13.751Z,10.10
2018-10-19T06:48:42.126Z,10.10
2018-10-19T06:51:10.487Z,10.20
2018-10-19T06:53:38.902Z,10.20
2018-10-19T06:56:07.319Z,10.20
2018-10-19T06:58:35.734Z,10.30
2018-10-19T07:01:04.360Z,10.30
2018-10-19T07:03:32.683Z,10.30
2018-10-19T07:06:01.096Z,10.30
2018-10-19T07:08:29.877Z,10.20
2018-10-19T07:10:59.189Z,10.40
2018-10-19T07:13:27.574Z,10.40
2018-10-19T07:15:55.992Z,10.50
2018-10-19T07:18:24.395Z,10.40
2018-10-19T07:20:52.779Z,10.50
2018-10-19T07:26:13.132Z,10.60
2018-10-19T07:28:41.474Z,10.60
2018-10-19T07:31:09.776Z,10.70
2018-10-19T07:33:38.137Z,10.70
2018-10-19T07:36:06.678Z,10.70
2018-10-19T07:38:35.079Z,10.60
2018-10-19T07:41:03.586Z,10.60
2018-10-19T07:43:31.950Z,10.80
2018-10-19T07:46:00.317Z,10.60
2018-10-19T07:48:28.810Z,10.70
2018-10-19T07:50:57.434Z,10.70
2018-10-19T07:53:25.833Z,10.70
2018-10-19T07:55:54.207Z,10.70
2018-10-19T07:58:22.631Z,10.70
2018-10-19T08:00:51.140Z,10.80
2018-10-19T08:03:19.563Z,10.80
2018-10-19T08:05:47.892Z,10.80
2018-10-19T08:08:16.258Z,10.90
2018-10-19T08:10:45.253Z,11.00
2018-10-19T08:13:13.538Z,11.10
2018-10-19T08:15:41.768Z,11.20
2018-10-19T08:18:11.847Z,11.20
2018-10-19T08:20:42.417Z,11.30
2018-10-19T08:23:11.000Z,11.40
2018-10-19T08:25:39.760Z,11.40
2018-10-19T08:28:08.377Z,11.20
2018-10-19T08:30:36.855Z,11.10
2018-10-19T08:33:05.273Z,11.30
2018-10-19T08:35:33.583Z,11.30
2018-10-19T08:38:02.166Z,11.50
2018-10-19T08:40:31.122Z,11.60
2018-10-19T08:42:59.454Z,11.60
2018-10-19T08:45:27.861Z,11.60
2018-10-19T08:47:56.182Z,11.50
2018-10-19T08:50:24.622Z,11.50
2018-10-19T08:52:53.069Z,11.60
2018-10-19T08:55:21.595Z,11.70
2018-10-19T08:57:49.946Z,11.80
2018-10-19T09:00:18.274Z,11.80
2018-10-19T09:02:46.378Z,12.00
2018-10-19T09:05:14.752Z,12.00
2018-10-19T09:07:43.016Z,12.20
2018-10-19T09:10:11.355Z,12.20
2018-10-19T09:12:39.999Z,12.30
2018-10-19T09:15:09.156Z,12.40
2018-10-19T09:17:37.613Z,12.30
2018-10-19T09:20:11.400Z,12.20
2018-10-19T09:22:39.762Z,12.20
2018-10-19T09:25:08.175Z,12.30
2018-10-19T09:27:36.811Z,12.30
2018-10-19T09:30:06.540Z,12.40
2018-10-19T09:32:35.028Z,12.60
2018-10-19T09:35:03.442Z,12.60
2018-10-19T09:37:31.877Z,12.50
2018-10-19T09:40:01.944Z,12.50
2018-10-19T09:42:30.746Z,12.50
2018-10-19T09:45:07.548Z,12.60
2018-10-19T09:47:36.220Z,12.70
2018-10-19T09:50:05.036Z,12.80
2018-10-19T09:52:34.298Z,12.90
2018-10-19T09:55:02.955Z,13.00
2018-10-19T09:57:31.480Z,13.10
2018-10-19T10:00:00.014Z,13.00
2018-10-19T10:02:28.452Z,13.10
2018-10-19T10:05:00.672Z,13.30
2018-10-19T10:07:29.572Z,13.30
2018-10-19T10:09:58.983Z,13.40
2018-10-19T10:12:27.980Z,13.40
2018-10-19T10:14:56.835Z,13.20
2018-10-19T10:17:25.354Z,13.30
2018-10-19T10:19:54.035Z,13.30
2018-10-19T10:22:22.647Z,13.40
2018-10-19T10:24:51.321Z,13.50
2018-10-19T10:27:19.893Z,13.50
2018-10-19T10:29:48.733Z,13.70
2018-10-19T10:32:17.310Z,13.90
2018-10-19T10:34:46.058Z,13.80
2018-10-19T10:37:15.042Z,13.80
2018-10-19T10:39:43.599Z,13.80
2018-10-19T10:42:12.036Z,13.80
2018-10-19T10:44:40.698Z,13.90
2018-10-19T10:47:09.283Z,13.90
2018-10-19T10:49:37.976Z,13.90
2018-10-19T10:52:10.446Z,14.00
2018-10-19T10:54:38.964Z,14.00
2018-10-19T10:57:07.746Z,14.20
2018-10-19T10:59:36.446Z,14.20
2018-10-19T11:02:05.100Z,14.10
2018-10-19T11:04:33.860Z,14.10
2018-10-19T11:07:02.543Z,13.90
2018-10-19T11:09:30.756Z,13.90
2018-10-19T11:11:59.689Z,13.80
2018-10-19T11:14:28.559Z,13.90
2018-10-19T11:16:57.165Z,13.90
2018-10-19T11:19:25.612Z,14.00
2018-10-19T11:21:54.136Z,14.10
2018-10-19T11:24:22.672Z,14.10
2018-10-19T11:26:51.209Z,14.20
2018-10-19T11:29:19.595Z,14.10
2018-10-19T11:31:48.016Z,14.20
2018-10-19T11:34:16.574Z,14.30
2018-10-19T11:36:45.011Z,14.30
2018-10-19T11:39:13.531Z,14.40
2018-10-19T11:41:42.476Z,14.40
2018-10-19T11:44:11.149Z,14.50
2018-10-19T11:46:39.765Z,14.70
2018-10-19T11:49:08.880Z,14.80
2018-10-19T11:51:40.172Z,14.80
2018-10-19T11:54:09.212Z,14.90
2018-10-19T11:56:37.843Z,14.90
2018-10-19T11:59:06.404Z,15.00
2018-10-19T12:01:35.058Z,15.00
2018-10-19T12:04:03.753Z,15.00
2018-10-19T12:06:32.563Z,15.00
2018-10-19T12:09:01.205Z,15.00
2018-10-19T12:11:29.745Z,15.00
2018-10-19T12:14:10.687Z,15.00
2018-10-19T12:16:39.503Z,15.00
2018-10-19T12:19:08.077Z,15.00
2018-10-19T12:21:36.578Z,15.00
2018-10-19T12:24:05.313Z,15.00
2018-10-19T12:26:34.067Z,15.10
2018-10-19T12:29:02.625Z,15.20
2018-10-19T12:31:31.108Z,15.20
2018-10-19T12:33:59.695Z,15.20
2018-10-19T12:36:28.147Z,15.40
2018-10-19T12:38:56.966Z,15.50
2018-10-19T12:41:25.464Z,15.50
2018-10-19T12:43:54.082Z,15.50
2018-10-19T12:48:38.605Z,15.60
2018-10-19T12:51:07.138Z,15.70
2018-10-19T12:53:35.697Z,15.70
2018-10-19T12:56:04.199Z,15.60
2018-10-19T12:58:32.801Z,15.60
2018-10-19T13:01:01.447Z,15.50
2018-10-19T13:03:30.111Z,15.50
2018-10-19T13:05:58.729Z,15.60
2018-10-19T13:08:27.308Z,15.60
2018-10-19T13:10:55.889Z,15.60
2018-10-19T13:13:24.489Z,15.60
2018-10-19T13:15:53.050Z,15.60
2018-10-19T13:18:21.688Z,15.60
2018-10-19T13:20:50.196Z,15.70
2018-10-19T13:23:18.667Z,15.70
2018-10-19T13:25:47.164Z,15.60
2018-10-19T13:28:16.124Z,15.50
2018-10-19T13:30:44.751Z,15.50
2018-10-19T13:33:13.749Z,15.50
2018-10-19T13:35:42.343Z,15.60
2018-10-19T13:38:10.883Z,15.70
2018-10-19T13:40:39.344Z,15.70
2018-10-19T13:43:07.889Z,15.70
2018-10-19T13:45:36.382Z,15.70
2018-10-19T13:48:04.885Z,15.70
2018-10-19T13:50:33.521Z,15.70
2018-10-19T13:53:02.322Z,15.80
2018-10-19T13:55:31.043Z,15.90
2018-10-19T13:57:59.596Z,15.90
2018-10-19T14:00:32.625Z,16.00
2018-10-19T14:03:01.095Z,16.10
2018-10-19T14:05:29.654Z,16.10
2018-10-19T14:07:57.951Z,16.30
2018-10-19T14:10:26.494Z,16.20
2018-10-19T14:12:55.015Z,16.20
2018-10-19T14:15:23.530Z,16.10
2018-10-19T14:17:51.992Z,16.20
2018-10-19T14:20:21.545Z,16.10
2018-10-19T14:22:50.412Z,16.10
2018-10-19T14:25:18.925Z,16.20
2018-10-19T14:27:47.479Z,16.30
2018-10-19T14:30:17.531Z,16.20
2018-10-19T14:32:46.494Z,16.20
2018-10-19T14:35:15.292Z,16.20
2018-10-19T14:37:44.808Z,16.20
2018-10-19T14:40:15.495Z,16.10
2018-10-19T14:42:44.542Z,16.10
2018-10-19T14:45:13.990Z,16.10
2018-10-19T14:47:43.108Z,16.00
2018-10-19T14:50:12.839Z,16.00
2018-10-19T14:52:41.060Z,15.90
2018-10-19T14:55:11.184Z,15.90
2018-10-19T14:57:39.413Z,15.80
2018-10-19T15:00:09.893Z,15.80
2018-10-19T15:02:38.210Z,15.80
2018-10-19T15:05:07.578Z,15.80
2018-10-19T15:07:36.227Z,15.80
2018-10-19T15:10:07.602Z,15.70
2018-10-19T15:12:35.763Z,15.70
2018-10-19T15:15:04.234Z,15.70
2018-10-19T15:17:32.661Z,15.60
2018-10-19T15:20:00.953Z,15.60
2018-10-19T15:22:29.222Z,15.50
2018-10-19T15:24:57.684Z,15.40
2018-10-19T15:27:26.017Z,15.40
2018-10-19T15:30:09.549Z,15.30
2018-10-19T15:32:39.754Z,15.30
2018-10-19T15:35:08.751Z,15.20
2018-10-19T15:37:37.512Z,15.20
2018-10-19T15:40:08.902Z,15.10
2018-10-19T15:42:39.095Z,15.10
2018-10-19T15:45:09.317Z,15.00
2018-10-19T15:47:37.963Z,15.00
2018-10-19T15:50:06.934Z,14.90
2018-10-19T15:52:35.491Z,14.80
2018-10-19T15:55:04.147Z,14.80
2018-10-19T15:57:32.811Z,14.70
2018-10-19T16:00:04.543Z,14.60
2018-10-19T16:02:33.193Z,14.60
2018-10-19T16:05:01.982Z,14.40
2018-10-19T16:07:30.572Z,14.30
2018-10-19T16:09:59.138Z,14.20
2018-10-19T16:12:27.797Z,14.00
2018-10-19T16:14:56.444Z,13.90
2018-10-19T16:17:25.025Z,13.80
2018-10-19T16:19:54.582Z,13.70
2018-10-19T16:22:23.070Z,13.60
2018-10-19T16:24:51.577Z,13.50
2018-10-19T16:27:20.186Z,13.40
2018-10-19T16:29:48.833Z,13.40
2018-10-19T16:32:18.136Z,13.30
2018-10-19T16:34:46.881Z,13.20
2018-10-19T16:37:15.724Z,13.10
2018-10-19T16:39:44.405Z,13.10
2018-10-19T16:42:13.188Z,13.00
2018-10-19T16:44:41.757Z,13.00
2018-10-19T16:47:10.427Z,13.00
2018-10-19T16:49:39.316Z,12.90
2018-10-19T16:52:08.146Z,12.90
2018-10-19T16:54:36.720Z,12.80
2018-10-19T16:57:05.830Z,12.70
2018-10-19T16:59:34.566Z,12.60
2018-10-19T17:02:03.212Z,12.60
2018-10-19T17:04:32.138Z,12.60
2018-10-19T17:07:01.265Z,12.60
2018-10-19T17:09:30.116Z,12.50
2018-10-19T17:11:58.920Z,12.50
2018-10-19T17:14:27.524Z,12.40
2018-10-19T17:16:56.127Z,12.40
2018-10-19T17:19:24.754Z,12.40
2018-10-19T17:21:53.266Z,12.40
2018-10-19T17:24:21.902Z,12.40
2018-10-19T17:26:50.503Z,12.40
2018-10-19T17:29:19.229Z,12.40
2018-10-19T17:31:48.118Z,12.40
2018-10-19T17:34:16.733Z,12.30
2018-10-19T17:36:45.457Z,12.30
2018-10-19T17:39:14.221Z,12.30
2018-10-19T17:41:42.842Z,12.30
2018-10-19T17:44:11.575Z,12.20
2018-10-19T17:46:40.435Z,12.10
2018-10-19T17:49:09.275Z,12.10
2018-10-19T17:51:38.012Z,12.10
2018-10-19T17:54:06.928Z,12.00
2018-10-19T17:56:35.716Z,12.00
2018-10-19T17:59:04.321Z,12.10
2018-10-19T18:01:32.842Z,12.00
2018-10-19T18:04:01.457Z,12.00
2018-10-19T18:06:30.144Z,12.00
2018-10-19T18:08:58.771Z,12.00
2018-10-19T18:11:27.395Z,12.00
2018-10-19T18:13:56.057Z,12.00
2018-10-19T18:16:24.644Z,12.00
2018-10-19T18:21:43.613Z,12.00
2018-10-19T18:24:12.023Z,11.90
2018-10-19T18:26:40.666Z,11.90
2018-10-19T18:29:09.285Z,11.90
2018-10-19T18:31:37.759Z,12.00
2018-10-19T18:36:56.493Z,11.80
2018-10-19T18:39:25.061Z,11.80
2018-10-19T18:44:43.749Z,11.80
2018-10-19T18:47:12.152Z,11.80
2018-10-19T18:49:40.505Z,11.80
2018-10-19T18:52:08.780Z,11.70
2018-10-19T18:54:42.878Z,11.70
2018-10-19T18:57:11.172Z,11.70
2018-10-19T18:59:39.437Z,11.60
2018-10-19T19:02:07.738Z,11.60
2018-10-19T19:04:36.019Z,11.50
2018-10-19T19:07:04.290Z,11.60
2018-10-19T19:09:32.558Z,11.50
2018-10-19T19:12:00.837Z,11.50
2018-10-19T19:14:29.172Z,11.50
2018-10-19T19:19:53.599Z,11.50
2018-10-19T19:22:21.839Z,11.50
2018-10-19T19:24:55.372Z,11.50
2018-10-19T19:27:23.630Z,11.60
2018-10-19T19:29:51.862Z,11.60
2018-10-19T19:32:20.845Z,11.50
2018-10-19T19:34:49.355Z,11.50
2018-10-19T19:37:17.892Z,11.50
2018-10-19T19:39:46.420Z,11.50
2018-10-19T19:42:20.062Z,11.50
2018-10-19T19:44:48.536Z,11.50
2018-10-19T19:47:22.161Z,11.40
2018-10-19T19:49:50.694Z,11.40
2018-10-19T19:52:20.651Z,11.50
2018-10-19T19:54:49.011Z,11.40
2018-10-19T19:57:18.308Z,11.40
2018-10-19T20:02:36.871Z,11.30
2018-10-19T20:05:05.575Z,11.40
2018-10-19T20:07:33.962Z,11.40
2018-10-19T20:10:02.336Z,11.30
2018-10-19T20:12:30.626Z,11.30
2018-10-19T20:14:58.921Z,11.30
2018-10-19T20:17:27.442Z,11.30
2018-10-19T20:19:55.977Z,11.30
2018-10-19T20:22:24.572Z,11.30
2018-10-19T20:24:53.547Z,11.30
2018-10-19T20:27:22.202Z,11.30
2018-10-19T20:29:50.599Z,11.20
2018-10-19T20:32:19.210Z,11.30
2018-10-19T20:34:47.447Z,11.20
2018-10-19T20:37:15.684Z,11.20
2018-10-19T20:39:43.910Z,11.20
2018-10-19T20:42:12.367Z,11.20
2018-10-19T20:44:40.612Z,11.20
2018-10-19T20:47:08.961Z,11.20
2018-10-19T20:49:37.143Z,11.20
2018-10-19T20:52:05.432Z,11.20
2018-10-19T20:54:33.678Z,11.20
2018-10-19T20:57:01.911Z,11.10
2018-10-19T20:59:30.164Z,11.10
2018-10-19T21:01:58.380Z,11.10
2018-10-19T21:04:26.618Z,11.10
2018-10-19T21:06:54.902Z,11.10
2018-10-19T21:09:23.478Z,11.10
2018-10-19T21:11:51.711Z,11.10
2018-10-19T21:14:20.026Z,11.10
2018-10-19T21:16:48.259Z,11.00
2018-10-19T21:19:16.511Z,11.00
2018-10-19T21:21:44.768Z,10.90
2018-10-19T21:24:13.005Z,10.90
2018-10-19T21:26:41.254Z,10.90
2018-10-19T21:29:09.841Z,10.90
2018-10-19T21:31:38.046Z,10.90
2018-10-19T21:34:06.290Z,11.00
2018-10-19T21:36:34.517Z,10.90
2018-10-19T21:39:03.227Z,10.90
2018-10-19T21:41:31.459Z,10.90
2018-10-19T21:43:59.822Z,11.00
2018-10-19T21:46:27.998Z,11.00
2018-10-19T21:48:56.286Z,11.00
2018-10-19T21:51:24.499Z,11.00
2018-10-19T21:53:52.721Z,10.90
2018-10-19T21:56:20.995Z,10.90
2018-10-19T21:58:49.204Z,10.90
2018-10-19T22:01:17.539Z,10.80
2018-10-19T22:03:46.330Z,10.80
2018-10-19T22:06:14.623Z,10.80
2018-10-19T22:08:42.972Z,10.70
2018-10-19T22:11:11.520Z,10.70
2018-10-19T22:13:39.938Z,10.70
2018-10-19T22:16:08.433Z,10.70
2018-10-19T22:18:36.657Z,10.70
2018-10-19T22:21:05.332Z,10.70
2018-10-19T22:23:33.831Z,10.70
2018-10-19T22:26:02.074Z,10.70
2018-10-19T22:28:30.231Z,10.70
2018-10-19T22:30:58.527Z,10.70
2018-10-19T22:33:26.699Z,10.70
2018-10-19T22:35:55.154Z,10.60
2018-10-19T22:38:23.353Z,10.60
2018-10-19T22:40:51.582Z,10.60
2018-10-19T22:43:19.805Z,10.50
2018-10-19T22:45:48.053Z,10.50
2018-10-19T22:48:16.283Z,10.40
2018-10-19T22:50:44.600Z,10.40
2018-10-19T22:56:03.710Z,10.60
2018-10-19T22:58:31.929Z,10.50
2018-10-19T23:01:00.406Z,10.60
2018-10-19T23:03:28.818Z,10.60
2018-10-19T23:05:56.999Z,10.60
2018-10-19T23:08:25.562Z,10.60
2018-10-19T23:10:53.772Z,10.60
2018-10-19T23:13:22.036Z,10.60
2018-10-19T23:15:50.457Z,10.60
2018-10-19T23:18:18.669Z,10.50
2018-10-19T23:20:47.082Z,10.40
2018-10-19T23:23:15.413Z,10.40
2018-10-19T23:25:43.595Z,10.40
2018-10-19T23:28:12.049Z,10.40
2018-10-19T23:30:40.248Z,10.30
2018-10-19T23:33:08.448Z,10.40
2018-10-19T23:35:36.684Z,10.40
2018-10-19T23:38:05.043Z,10.40
2018-10-19T23:40:33.238Z,10.40
2018-10-19T23:43:01.478Z,10.40
2018-10-19T23:45:29.689Z,10.30
2018-10-19T23:47:57.890Z,10.40
2018-10-19T23:50:26.134Z,10.40
2018-10-19T23:52:54.346Z,10.40
2018-10-19T23:55:22.549Z,10.40
2018-10-19T23:57:50.769Z,10.40
